createdAt,value
2022-11-04T00:02:04.403Z,7.65
2022-11-04T00:04:31.830Z,7.66
2022-11-04T00:06:59.242Z,7.77
2022-11-04T00:09:27.469Z,7.65
2022-11-04T00:12:32.431Z,7.69
2022-11-04T00:15:18.800Z,7.59
2022-11-04T00:17:45.246Z,7.66
2022-11-04T00:20:30.190Z,7.66
2022-11-04T00:23:15.280Z,7.57
2022-11-04T00:26:00.087Z,7.68
2022-11-04T00:28:44.720Z,7.52
2022-11-04T00:31:29.797Z,7.64
2022-11-04T00:33:57.531Z,7.52
2022-11-04T00:36:24.784Z,7.59
2022-11-04T00:38:51.454Z,7.59
2022-11-04T00:41:27.166Z,7.52
2022-11-04T00:44:01.904Z,7.62
2022-11-04T00:46:29.327Z,7.51
2022-11-04T00:48:56.094Z,7.61
2022-11-04T00:51:25.238Z,7.59
2022-11-04T00:53:51.941Z,7.58
2022-11-04T00:56:18.410Z,7.73
2022-11-04T00:58:44.930Z,7.56
2022-11-04T01:01:12.330Z,7.65
2022-11-04T01:03:38.896Z,7.68
2022-11-04T01:06:07.291Z,7.59
2022-11-04T01:08:33.883Z,7.73
2022-11-04T01:11:06.931Z,7.62
2022-11-04T01:13:33.357Z,7.69
2022-11-04T01:16:02.023Z,7.70
2022-11-04T01:18:28.755Z,7.64
2022-11-04T01:20:55.394Z,7.79
2022-11-04T01:23:21.775Z,7.65
2022-11-04T01:25:48.343Z,7.72
2022-11-04T01:28:15.661Z,7.72
2022-11-04T01:30:42.115Z,7.66
2022-11-04T01:33:08.581Z,7.79
2022-11-04T01:35:35.137Z,7.66
2022-11-04T01:38:02.628Z,7.69
2022-11-04T01:40:29.165Z,7.78
2022-11-04T01:42:55.655Z,7.65
2022-11-04T01:45:22.458Z,7.78
2022-11-04T01:47:55.490Z,7.71
2022-11-04T01:50:24.753Z,7.73
2022-11-04T01:52:56.738Z,7.77
2022-11-04T01:55:28.027Z,7.66
2022-11-04T01:57:56.692Z,7.78
2022-11-04T02:00:23.254Z,7.68
2022-11-04T02:02:51.730Z,7.71
2022-11-04T02:05:21.742Z,7.74
2022-11-04T02:07:51.020Z,7.65
2022-11-04T02:10:18.391Z,7.76
2022-11-04T02:12:50.535Z,7.69
2022-11-04T02:15:23.634Z,7.70
2022-11-04T02:17:50.017Z,7.76
2022-11-04T02:20:18.506Z,7.62
2022-11-04T02:22:47.964Z,7.75
2022-11-04T02:25:34.661Z,7.66
2022-11-04T02:28:13.317Z,7.69
2022-11-04T02:31:03.096Z,7.73
2022-11-04T02:33:34.284Z,7.62
2022-11-04T02:36:06.318Z,7.74
2022-11-04T02:38:32.978Z,7.60
2022-11-04T02:41:05.639Z,7.68
2022-11-04T02:43:38.235Z,7.62
2022-11-04T02:46:07.418Z,7.57
2022-11-04T02:48:43.134Z,7.68
2022-11-04T02:51:22.446Z,7.54
2022-11-04T02:53:57.638Z,7.66
2022-11-04T02:56:25.166Z,7.59
2022-11-04T02:59:00.550Z,7.56
2022-11-04T03:01:29.560Z,7.67
2022-11-04T03:04:01.310Z,7.54
2022-11-04T03:06:29.440Z,7.60
2022-11-04T03:08:57.824Z,7.58
2022-11-04T03:11:26.110Z,7.50
2022-11-04T03:13:54.868Z,7.61
2022-11-04T03:16:26.674Z,7.49
2022-11-04T03:19:08.197Z,7.49
2022-11-04T03:21:37.408Z,7.55
2022-11-04T03:24:04.675Z,7.43
2022-11-04T03:26:31.177Z,7.56
2022-11-04T03:29:03.827Z,7.46
2022-11-04T03:31:40.690Z,7.45
2022-11-04T03:34:07.186Z,7.51
2022-11-04T03:36:33.762Z,7.35
2022-11-04T03:39:00.309Z,7.41
2022-11-04T03:41:43.087Z,7.47
2022-11-04T03:44:09.560Z,7.37
2022-11-04T03:46:36.037Z,7.48
2022-11-04T03:49:03.090Z,7.38
2022-11-04T03:51:29.541Z,7.35
2022-11-04T03:53:56.803Z,7.46
2022-11-04T03:56:35.518Z,7.31
2022-11-04T03:59:04.706Z,7.35
2022-11-04T04:01:39.442Z,7.38
2022-11-04T04:04:06.618Z,7.19
2022-11-04T04:06:35.687Z,7.31
2022-11-04T04:09:22.515Z,7.23
2022-11-04T04:11:56.050Z,7.22
2022-11-04T04:14:41.342Z,7.32
2022-11-04T04:17:19.978Z,7.14
2022-11-04T04:19:49.206Z,7.27
2022-11-04T04:22:21.336Z,7.23
2022-11-04T04:25:07.990Z,7.15
2022-11-04T04:27:35.429Z,7.32
2022-11-04T04:30:05.151Z,7.12
2022-11-04T04:32:34.794Z,7.16
2022-11-04T04:35:19.799Z,7.20
2022-11-04T04:37:46.466Z,7.07
2022-11-04T04:40:34.307Z,7.16
2022-11-04T04:43:23.374Z,7.14
2022-11-04T04:45:52.635Z,7.10
2022-11-04T04:48:19.127Z,7.21
2022-11-04T04:50:48.571Z,7.10
2022-11-04T04:53:15.446Z,7.14
2022-11-04T04:55:42.104Z,7.19
2022-11-04T04:58:08.957Z,7.06
2022-11-04T05:00:35.526Z,7.15
2022-11-04T05:03:01.969Z,7.17
2022-11-04T05:05:29.085Z,7.03
2022-11-04T05:07:56.301Z,7.14
2022-11-04T05:10:22.702Z,7.15
2022-11-04T05:13:07.866Z,7.07
2022-11-04T05:15:34.474Z,7.22
2022-11-04T05:18:02.077Z,7.14
2022-11-04T05:20:30.467Z,7.06
2022-11-04T05:22:57.270Z,7.22
2022-11-04T05:25:23.786Z,7.14
2022-11-04T05:27:50.274Z,7.11
2022-11-04T05:30:16.734Z,7.27
2022-11-04T05:32:43.372Z,7.13
2022-11-04T05:35:09.813Z,7.15
2022-11-04T05:37:36.308Z,7.26
2022-11-04T05:40:05.066Z,7.14
2022-11-04T05:42:31.550Z,7.19
2022-11-04T05:44:58.015Z,7.27
2022-11-04T05:47:27.082Z,7.14
2022-11-04T05:49:53.535Z,7.23
2022-11-04T05:52:20.249Z,7.23
2022-11-04T05:54:46.715Z,7.12
2022-11-04T05:57:13.257Z,7.24
2022-11-04T05:59:39.649Z,7.23
2022-11-04T06:02:06.179Z,7.14
2022-11-04T06:04:32.793Z,7.22
2022-11-04T06:07:00.130Z,7.26
2022-11-04T06:09:39.209Z,7.16
2022-11-04T06:12:05.756Z,7.30
2022-11-04T06:14:32.233Z,7.23
2022-11-04T06:17:00.176Z,7.17
2022-11-04T06:19:26.901Z,7.34
2022-11-04T06:21:53.401Z,7.25
2022-11-04T06:24:19.818Z,7.26
2022-11-04T06:26:46.338Z,7.42
2022-11-04T06:29:12.727Z,7.29
2022-11-04T06:31:39.243Z,7.32
2022-11-04T06:34:05.633Z,7.45
2022-11-04T06:36:32.105Z,7.30
2022-11-04T06:39:04.178Z,7.35
2022-11-04T06:41:31.295Z,7.43
2022-11-04T06:43:57.838Z,7.30
2022-11-04T06:46:24.455Z,7.42
2022-11-04T06:48:51.071Z,7.41
2022-11-04T06:51:17.530Z,7.31
2022-11-04T06:53:44.014Z,7.43
2022-11-04T06:56:10.495Z,7.41
2022-11-04T06:58:36.886Z,7.28
2022-11-04T07:01:11.138Z,7.45
2022-11-04T07:03:42.517Z,7.39
2022-11-04T07:06:11.799Z,7.34
2022-11-04T07:08:38.237Z,7.51
2022-11-04T07:11:04.781Z,7.41
2022-11-04T07:13:31.297Z,7.43
2022-11-04T07:15:58.126Z,7.55
2022-11-04T07:18:26.894Z,7.46
2022-11-04T07:20:53.406Z,7.56
2022-11-04T07:23:22.207Z,7.67
2022-11-04T07:25:48.807Z,7.52
2022-11-04T07:28:15.279Z,7.65
2022-11-04T07:30:41.821Z,7.60
2022-11-04T07:33:08.470Z,7.59
2022-11-04T07:35:36.018Z,7.69
2022-11-04T07:38:04.125Z,7.57
2022-11-04T07:40:31.004Z,7.68
2022-11-04T07:42:57.399Z,7.68
2022-11-04T07:45:23.913Z,7.62
2022-11-04T07:47:50.797Z,7.78
2022-11-04T07:50:17.397Z,7.69
2022-11-04T07:52:43.994Z,7.74
2022-11-04T07:55:10.641Z,7.81
2022-11-04T07:57:37.150Z,7.70
2022-11-04T08:00:06.353Z,7.84
2022-11-04T08:02:35.311Z,7.81
2022-11-04T08:05:02.695Z,7.78
2022-11-04T08:07:29.867Z,7.93
2022-11-04T08:09:56.490Z,7.86
2022-11-04T08:12:24.369Z,7.96
2022-11-04T08:14:53.357Z,8.02
2022-11-04T08:17:20.482Z,7.90
2022-11-04T08:19:46.872Z,8.06
2022-11-04T08:22:13.559Z,7.96
2022-11-04T08:24:40.679Z,8.03
2022-11-04T08:27:10.261Z,8.09
2022-11-04T08:29:39.610Z,7.95
2022-11-04T08:32:07.121Z,8.08
2022-11-04T08:34:34.139Z,8.02
2022-11-04T08:37:00.598Z,8.06
2022-11-04T08:39:27.005Z,8.13
2022-11-04T08:41:57.280Z,8.02
2022-11-04T08:44:26.110Z,8.10
2022-11-04T08:46:54.550Z,8.15
2022-11-04T08:49:21.655Z,8.12
2022-11-04T08:51:54.389Z,8.24
2022-11-04T08:54:20.824Z,8.13
2022-11-04T08:56:47.330Z,8.21
2022-11-04T08:59:17.452Z,8.25
2022-11-04T09:01:44.550Z,8.26
2022-11-04T09:04:12.202Z,8.40
2022-11-04T09:06:41.117Z,8.30
2022-11-04T09:09:08.703Z,8.41
2022-11-04T09:11:40.003Z,8.40
2022-11-04T09:14:06.537Z,8.44
2022-11-04T09:16:36.464Z,8.56
2022-11-04T09:19:03.601Z,8.41
2022-11-04T09:21:31.898Z,8.49
2022-11-04T09:24:00.802Z,8.43
2022-11-04T09:26:27.531Z,8.40
2022-11-04T09:28:55.558Z,8.46
2022-11-04T09:31:24.583Z,8.33
2022-11-04T09:33:51.020Z,8.47
2022-11-04T09:36:17.513Z,8.37
2022-11-04T09:38:45.052Z,8.40
2022-11-04T09:41:33.834Z,8.46
2022-11-04T09:44:10.714Z,8.31
2022-11-04T09:46:39.660Z,8.33
2022-11-04T09:49:10.759Z,8.47
2022-11-04T09:51:53.836Z,8.32
2022-11-04T09:54:27.446Z,8.32
2022-11-04T09:56:55.285Z,8.43
2022-11-04T09:59:26.183Z,8.29
2022-11-04T10:01:58.631Z,8.42
2022-11-04T10:04:35.786Z,8.40
2022-11-04T10:07:12.058Z,8.37
2022-11-04T10:09:56.641Z,8.53
2022-11-04T10:12:29.135Z,8.40
2022-11-04T10:15:04.733Z,8.45
2022-11-04T10:17:33.923Z,8.45
2022-11-04T10:20:22.933Z,8.33
2022-11-04T10:23:08.086Z,8.49
2022-11-04T10:25:38.989Z,8.40
2022-11-04T10:28:07.913Z,8.42
2022-11-04T10:30:36.806Z,8.51
2022-11-04T10:33:09.474Z,8.42
2022-11-04T10:35:48.526Z,8.52
2022-11-04T10:38:14.890Z,8.52
2022-11-04T10:40:41.829Z,8.47
2022-11-04T10:43:12.789Z,8.64
2022-11-04T10:45:58.083Z,8.59
2022-11-04T10:48:51.040Z,8.57
2022-11-04T10:51:25.772Z,8.70
2022-11-04T10:53:54.614Z,8.60
2022-11-04T10:56:41.860Z,8.75
2022-11-04T10:59:20.245Z,8.73
2022-11-04T11:01:54.421Z,8.72
2022-11-04T11:04:40.463Z,8.83
2022-11-04T11:07:12.373Z,8.70
2022-11-04T11:09:53.366Z,8.79
2022-11-04T11:12:50.017Z,8.72
2022-11-04T11:15:29.590Z,8.76
2022-11-04T11:17:59.709Z,8.78
2022-11-04T11:20:27.359Z,8.74
2022-11-04T11:22:54.856Z,8.90
2022-11-04T11:25:21.525Z,8.87
2022-11-04T11:27:49.367Z,8.91
2022-11-04T11:30:23.369Z,9.04
2022-11-04T11:32:55.902Z,8.93
2022-11-04T11:35:23.665Z,9.06
2022-11-04T11:37:50.223Z,8.99
2022-11-04T11:40:26.022Z,8.92
2022-11-04T11:42:52.798Z,9.08
2022-11-04T11:45:22.847Z,8.95
2022-11-04T11:47:55.024Z,8.99
2022-11-04T11:50:26.716Z,9.02
2022-11-04T11:52:54.100Z,8.89
2022-11-04T11:55:29.570Z,8.95
2022-11-04T12:00:51.070Z,8.92
2022-11-04T12:09:28.744Z,8.94
2022-11-04T12:12:07.353Z,8.79
2022-11-04T12:14:51.955Z,8.91
2022-11-04T12:17:18.419Z,8.78
2022-11-04T12:19:52.981Z,8.83
2022-11-04T12:22:19.425Z,8.82
2022-11-04T12:25:12.019Z,8.77
2022-11-04T12:27:47.538Z,8.85
2022-11-04T12:30:17.235Z,8.76
2022-11-04T12:33:02.493Z,8.88
2022-11-04T12:35:37.559Z,8.81
2022-11-04T12:38:22.654Z,8.88
2022-11-04T12:43:49.936Z,8.86
2022-11-04T12:46:42.790Z,8.86
2022-11-04T12:49:27.698Z,8.83
2022-11-04T12:52:03.525Z,8.86
2022-11-04T12:54:48.485Z,8.76
2022-11-04T12:57:32.374Z,8.89
2022-11-04T13:00:10.039Z,8.79
2022-11-04T13:02:42.631Z,8.91
2022-11-04T13:05:21.151Z,8.82
2022-11-04T13:08:13.966Z,8.84
2022-11-04T13:10:45.494Z,8.85
2022-11-04T13:13:15.374Z,8.82
2022-11-04T13:15:48.582Z,8.94
2022-11-04T13:18:17.526Z,8.79
2022-11-04T13:21:02.297Z,8.93
2022-11-04T13:23:34.738Z,8.79
2022-11-04T13:26:02.749Z,8.84
2022-11-04T13:28:29.356Z,8.81
2022-11-04T13:31:12.525Z,8.73
2022-11-04T13:33:53.646Z,8.86
2022-11-04T13:36:35.433Z,8.70
2022-11-04T13:39:06.158Z,8.77
2022-11-04T13:41:40.071Z,8.70
2022-11-04T13:44:28.978Z,8.69
2022-11-04T13:46:59.367Z,8.77
2022-11-04T13:49:30.594Z,8.63
2022-11-04T13:52:08.188Z,8.76
2022-11-04T13:54:41.968Z,8.66
2022-11-04T13:57:10.198Z,8.67
2022-11-04T13:59:39.230Z,8.74
2022-11-04T14:02:12.109Z,8.58
2022-11-04T14:04:41.345Z,8.69
2022-11-04T14:07:10.667Z,8.55
2022-11-04T14:09:50.326Z,8.47
2022-11-04T14:12:20.251Z,8.54
2022-11-04T14:14:48.213Z,8.35
2022-11-04T14:17:32.851Z,8.38
2022-11-04T14:20:06.280Z,8.34
2022-11-04T14:22:37.615Z,8.31
2022-11-04T14:25:24.455Z,8.41
2022-11-04T14:27:52.933Z,8.20
2022-11-04T14:30:31.679Z,8.30
2022-11-04T14:33:11.671Z,8.25
2022-11-04T14:35:38.598Z,8.31
2022-11-04T14:38:20.148Z,8.32
2022-11-04T14:40:52.433Z,8.28
2022-11-04T14:43:32.946Z,8.38
2022-11-04T14:46:02.683Z,8.25
2022-11-04T14:48:30.461Z,8.38
2022-11-04T14:50:57.491Z,8.25
2022-11-04T14:53:26.726Z,8.23
2022-11-04T14:56:24.200Z,8.25
2022-11-04T14:59:02.071Z,8.13
2022-11-04T15:01:34.651Z,8.21
2022-11-04T15:04:18.092Z,8.05
2022-11-04T15:06:55.184Z,8.10
2022-11-04T15:09:27.327Z,8.05
2022-11-04T15:12:21.213Z,8.01
2022-11-04T15:14:47.677Z,8.08
2022-11-04T15:17:18.150Z,7.94
2022-11-04T15:19:48.253Z,8.05
2022-11-04T15:22:15.100Z,8.00
2022-11-04T15:24:42.641Z,7.97
2022-11-04T15:27:18.761Z,8.08
2022-11-04T15:29:55.534Z,7.94
2022-11-04T15:32:22.444Z,8.04
2022-11-04T15:34:49.278Z,8.01
2022-11-04T15:37:17.280Z,7.97
2022-11-04T15:39:45.530Z,8.09
2022-11-04T15:42:35.693Z,7.96
2022-11-04T15:45:16.466Z,8.06
2022-11-04T15:47:42.994Z,8.01
2022-11-04T15:50:21.342Z,8.03
2022-11-04T15:52:50.394Z,8.11
2022-11-04T15:55:24.686Z,7.95
2022-11-04T15:57:51.795Z,8.08
2022-11-04T16:00:18.166Z,8.01
2022-11-04T16:02:46.976Z,8.01
2022-11-04T16:05:19.576Z,8.09
2022-11-04T16:07:48.152Z,7.96
2022-11-04T16:10:34.882Z,8.06
2022-11-04T16:13:02.938Z,8.05
2022-11-04T16:15:34.185Z,7.98
2022-11-04T16:18:03.129Z,8.12
2022-11-04T16:20:31.368Z,8.00
2022-11-04T16:23:00.458Z,8.11
2022-11-04T16:25:29.733Z,8.09
2022-11-04T16:27:56.401Z,7.97
2022-11-04T16:30:24.837Z,8.10
2022-11-04T16:32:56.695Z,8.01
2022-11-04T16:35:24.942Z,8.02
2022-11-04T16:37:52.230Z,8.10
2022-11-04T16:40:19.376Z,8.00
2022-11-04T16:42:46.803Z,8.07
2022-11-04T16:45:33.441Z,8.03
2022-11-04T16:48:00.249Z,7.96
2022-11-04T16:50:27.183Z,8.05
2022-11-04T16:52:53.902Z,7.95
2022-11-04T16:55:25.161Z,8.02
2022-11-04T16:57:55.327Z,7.98
2022-11-04T17:00:26.397Z,7.91
2022-11-04T17:02:52.882Z,8.04
2022-11-04T17:05:21.366Z,7.86
2022-11-04T17:07:53.540Z,7.95
2022-11-04T17:10:24.712Z,7.89
2022-11-04T17:12:51.137Z,7.84
2022-11-04T17:15:17.865Z,7.96
2022-11-04T17:17:44.393Z,8.05
2022-11-04T17:20:12.141Z,7.91
2022-11-04T17:22:38.858Z,7.93
2022-11-04T17:25:15.323Z,7.93
2022-11-04T17:27:44.332Z,7.84
2022-11-04T17:30:12.993Z,7.96
2022-11-04T17:32:39.542Z,7.81
2022-11-04T17:35:06.548Z,7.89
2022-11-04T17:37:33.131Z,7.84
2022-11-04T17:39:59.620Z,7.81
2022-11-04T17:42:44.474Z,7.90
2022-11-04T17:45:11.074Z,7.77
2022-11-04T17:47:38.510Z,7.86
2022-11-04T17:50:06.951Z,7.79
2022-11-04T17:52:36.894Z,7.80
2022-11-04T17:55:03.777Z,7.87
2022-11-04T17:57:30.296Z,7.78
2022-11-04T17:59:56.854Z,7.90
2022-11-04T18:02:25.486Z,7.83
2022-11-04T18:04:54.562Z,7.81
2022-11-04T18:07:21.811Z,7.90
2022-11-04T18:09:48.299Z,7.81
2022-11-04T18:12:33.451Z,7.87
2022-11-04T18:14:59.910Z,7.85
2022-11-04T18:17:26.306Z,7.82
2022-11-04T18:19:52.807Z,7.96
2022-11-04T18:22:19.730Z,7.84
2022-11-04T18:24:47.986Z,7.91
2022-11-04T18:27:15.041Z,7.91
2022-11-04T18:29:41.463Z,7.81
2022-11-04T18:32:08.537Z,7.92
2022-11-04T18:34:35.026Z,7.85
2022-11-04T18:37:01.491Z,7.84
2022-11-04T18:39:30.304Z,7.84
2022-11-04T18:41:56.778Z,7.77
2022-11-04T18:44:23.481Z,7.87
2022-11-04T18:46:50.420Z,7.77
2022-11-04T18:49:17.534Z,7.78
2022-11-04T18:51:44.411Z,7.87
2022-11-04T18:54:11.125Z,7.75
2022-11-04T18:56:37.637Z,7.85
2022-11-04T18:59:04.444Z,7.81
2022-11-04T19:01:32.234Z,7.78
2022-11-04T19:03:59.474Z,7.86
2022-11-04T19:06:28.231Z,7.77
2022-11-04T19:09:04.876Z,7.87
2022-11-04T19:11:37.135Z,7.82
2022-11-04T19:14:09.220Z,7.79
2022-11-04T19:16:36.117Z,7.87
2022-11-04T19:19:04.105Z,7.76
2022-11-04T19:21:30.797Z,7.85
2022-11-04T19:23:59.880Z,7.83
2022-11-04T19:26:27.686Z,7.81
2022-11-04T19:28:55.418Z,7.90
2022-11-04T19:31:23.789Z,7.82
2022-11-04T19:33:51.111Z,7.85
2022-11-04T19:36:18.664Z,7.88
2022-11-04T19:38:45.254Z,7.78
2022-11-04T19:41:33.018Z,7.88
2022-11-04T19:44:01.071Z,7.82
2022-11-04T19:46:27.587Z,7.80
2022-11-04T19:48:55.527Z,7.88
2022-11-04T19:51:22.175Z,7.77
2022-11-04T19:53:48.639Z,7.87
2022-11-04T19:56:18.470Z,7.85
2022-11-04T19:58:45.316Z,7.79
2022-11-04T20:01:12.845Z,7.86
2022-11-04T20:03:40.014Z,7.80
2022-11-04T20:06:11.155Z,7.82
2022-11-04T20:08:38.474Z,7.87
2022-11-04T20:11:06.590Z,7.77
2022-11-04T20:13:46.625Z,7.86
2022-11-04T20:16:16.663Z,7.81
2022-11-04T20:18:43.912Z,7.80
2022-11-04T20:21:11.230Z,7.90
2022-11-04T20:23:37.917Z,7.81
2022-11-04T20:26:08.623Z,7.85
2022-11-04T20:28:35.155Z,7.88
2022-11-04T20:31:01.562Z,7.82
2022-11-04T20:33:28.026Z,7.92
2022-11-04T20:35:57.327Z,7.81
2022-11-04T20:38:23.870Z,7.87
2022-11-04T20:40:50.415Z,7.84
2022-11-04T20:43:17.426Z,7.80
2022-11-04T20:45:48.238Z,7.90
2022-11-04T20:48:17.657Z,7.80
2022-11-04T20:50:44.077Z,7.85
2022-11-04T20:53:10.473Z,7.87
2022-11-04T20:55:39.146Z,7.83
2022-11-04T20:58:06.750Z,7.93
2022-11-04T21:00:33.523Z,7.82
2022-11-04T21:03:00.039Z,7.90
2022-11-04T21:05:27.874Z,7.87
2022-11-04T21:07:54.861Z,7.84
2022-11-04T21:10:23.452Z,7.90
2022-11-04T21:12:51.629Z,7.82
2022-11-04T21:15:36.901Z,7.88
2022-11-04T21:18:03.451Z,7.85
2022-11-04T21:20:29.868Z,7.88
2022-11-04T21:22:56.511Z,7.92
2022-11-04T21:25:23.481Z,7.83
2022-11-04T21:27:49.865Z,7.94
2022-11-04T21:30:16.291Z,7.86
2022-11-04T21:32:42.742Z,7.89
2022-11-04T21:35:09.479Z,7.91
2022-11-04T21:37:37.205Z,7.84
2022-11-04T21:40:04.425Z,7.97
2022-11-04T21:42:30.818Z,7.86
2022-11-04T21:44:57.235Z,7.93
2022-11-04T21:47:23.698Z,7.94
2022-11-04T21:49:50.777Z,7.89
2022-11-04T21:52:17.174Z,8.03
2022-11-04T21:54:45.594Z,7.88
2022-11-04T21:57:12.002Z,7.94
2022-11-04T21:59:38.508Z,7.95
2022-11-04T22:02:05.043Z,7.87
2022-11-04T22:04:31.556Z,8.00
2022-11-04T22:06:58.813Z,7.86
2022-11-04T22:09:25.321Z,7.89
2022-11-04T22:11:53.650Z,7.94
2022-11-04T22:14:20.116Z,7.83
2022-11-04T22:16:46.868Z,7.96
2022-11-04T22:19:16.186Z,7.86
2022-11-04T22:21:44.293Z,7.90
2022-11-04T22:24:11.759Z,7.94
2022-11-04T22:26:39.042Z,7.85
2022-11-04T22:29:05.438Z,7.96
2022-11-04T22:31:33.218Z,7.93
2022-11-04T22:34:00.872Z,7.85
2022-11-04T22:36:30.282Z,7.98
2022-11-04T22:38:56.979Z,7.86
2022-11-04T22:41:27.950Z,7.93
2022-11-04T22:43:55.830Z,7.92
2022-11-04T22:46:23.906Z,7.89
2022-11-04T22:48:50.597Z,8.00
2022-11-04T22:51:17.406Z,7.86
2022-11-04T22:53:44.206Z,7.95
2022-11-04T22:56:11.809Z,7.93
2022-11-04T22:58:38.325Z,7.85
2022-11-04T23:01:09.608Z,7.96
2022-11-04T23:03:36.178Z,7.80
2022-11-04T23:06:05.921Z,7.88
2022-11-04T23:08:33.950Z,7.86
2022-11-04T23:11:20.535Z,7.78
2022-11-04T23:14:09.886Z,7.88
2022-11-04T23:16:55.893Z,7.73
2022-11-04T23:19:26.929Z,7.77
2022-11-04T23:22:14.774Z,7.82
2022-11-04T23:24:59.865Z,7.72
2022-11-04T23:27:46.709Z,7.82
2022-11-04T23:30:24.133Z,7.70
2022-11-04T23:33:00.135Z,7.70
2022-11-04T23:36:05.155Z,7.85
2022-11-04T23:38:31.968Z,7.73
2022-11-04T23:41:18.298Z,7.73
2022-11-04T23:43:44.942Z,7.83
2022-11-04T23:46:30.387Z,7.74
2022-11-04T23:49:15.733Z,7.82
2022-11-04T23:52:01.028Z,7.82
2022-11-04T23:54:46.421Z,7.76
2022-11-04T23:57:32.782Z,7.87
